Time;durP1;ratioP1;P1;durP2;ratioP2;P2;SDS_P1;SDS_P2;PMS_P1;PMS_P2;Temp;Humidity;BMP_temperature;BMP_pressure;BME280_temperature;BME280_humidity;BME280_pressure;Samples;Min_cycle;Max_cycle;Signal;HPM_P1;HPM_P2
2022/01/31 07:01:10;;;;;;;29.48;4.03;;;;;;;;;;5560946;23;20047;-87
2022/01/31 07:03:37;;;;;;;31.55;3.90;;;;;;;;;;4939986;28;20070;-89
2022/01/31 07:06:04;;;;;;;33.67;3.88;;;;;;;;;;4932121;28;20460;-84
2022/01/31 07:08:31;;;;;;;33.33;4.88;;;;;;;;;;4938481;28;20107;-88
2022/01/31 07:10:58;;;;;;;29.00;3.70;;;;;;;;;;4934933;28;20070;-89
2022/01/31 07:15:58;;;;;;;32.10;3.95;;;;;;;;;;4936403;28;20078;-87
2022/01/31 07:18:24;;;;;;;26.67;3.97;;;;;;;;;;4936573;28;20110;-90
2022/01/31 07:20:53;;;;;;;22.02;3.72;;;;;;;;;;4933204;28;20047;-89
2022/01/31 07:23:49;;;;;;;29.02;4.10;;;;;;;;;;4913769;29;20052;-90
2022/01/31 07:26:06;;;;;;;26.80;3.88;;;;;;;;;;4931427;28;20111;-92
2022/01/31 07:28:33;;;;;;;27.83;3.88;;;;;;;;;;4934401;28;20488;-90
2022/01/31 07:31:00;;;;;;;26.60;4.18;;;;;;;;;;4933220;29;20052;-90
2022/01/31 07:33:27;;;;;;;32.60;3.78;;;;;;;;;;4935915;28;20047;-91
2022/01/31 07:35:54;;;;;;;33.17;4.15;;;;;;;;;;4936289;29;20069;-91
2022/01/31 07:38:25;;;;;;;40.63;4.97;;;;;;;;;;4945466;28;20115;-91
2022/01/31 07:40:55;;;;;;;30.92;4.30;;;;;;;;;;4936551;29;20052;-91
2022/01/31 07:43:22;;;;;;;21.52;3.80;;;;;;;;;;4935881;28;20095;-91
2022/01/31 07:45:49;;;;;;;28.02;4.68;;;;;;;;;;4936543;28;20066;-92
2022/01/31 07:48:16;;;;;;;29.27;4.25;;;;;;;;;;4939476;28;20047;-90
2022/01/31 07:50:42;;;;;;;24.85;3.95;;;;;;;;;;4955224;29;20047;-91
2022/01/31 07:53:09;;;;;;;31.83;4.22;;;;;;;;;;4937259;28;20052;-93
2022/01/31 07:55:36;;;;;;;26.45;4.00;;;;;;;;;;4936205;29;20051;-92
2022/01/31 07:58:03;;;;;;;32.78;4.72;;;;;;;;;;4935821;29;20107;-91
2022/01/31 08:00:46;;;;;;;20.45;3.25;;;;;;;;;;4934622;28;20548;-90
2022/01/31 08:03:14;;;;;;;22.58;3.03;;;;;;;;;;4935403;28;20055;-90
2022/01/31 08:05:41;;;;;;;24.05;3.95;;;;;;;;;;4936473;28;20576;-90
2022/01/31 08:08:08;;;;;;;22.90;3.05;;;;;;;;;;4934828;28;20052;-90
2022/01/31 08:10:37;;;;;;;23.88;3.08;;;;;;;;;;4936182;28;20123;-90
2022/01/31 08:13:06;;;;;;;;;;;;;;;;;;4935178;28;20052;-91
2022/01/31 08:15:44;;;;;;;20.67;3.13;;;;;;;;;;4932152;29;19923;-90
2022/01/31 08:18:10;;;;;;;32.72;3.17;;;;;;;;;;4919356;28;20044;-90
2022/01/31 08:20:42;;;;;;;27.42;3.03;;;;;;;;;;4936408;28;20137;-90
2022/01/31 08:23:10;;;;;;;22.05;2.83;;;;;;;;;;4934593;28;20056;-90
2022/01/31 08:25:37;;;;;;;24.50;3.05;;;;;;;;;;4936497;28;20464;-90
2022/01/31 08:28:11;;;;;;;21.45;3.70;;;;;;;;;;4934353;28;20477;-89
2022/01/31 08:30:49;;;;;;;21.42;3.90;;;;;;;;;;4936144;28;20051;-90
2022/01/31 08:33:34;;;;;;;21.48;3.13;;;;;;;;;;4936037;28;20067;-89
2022/01/31 08:36:02;;;;;;;26.75;3.53;;;;;;;;;;4917005;29;20198;-89
2022/01/31 08:38:30;;;;;;;30.35;4.53;;;;;;;;;;4936199;29;20040;-89
2022/01/31 08:40:57;;;;;;;31.25;3.88;;;;;;;;;;4935761;29;20100;-88
2022/01/31 08:43:24;;;;;;;25.52;4.20;;;;;;;;;;4935214;28;20059;-89
2022/01/31 08:45:55;;;;;;;22.85;3.47;;;;;;;;;;4934884;29;20048;-89
2022/01/31 08:48:23;;;;;;;29.42;3.53;;;;;;;;;;4937595;28;20047;-88
2022/01/31 08:50:50;;;;;;;24.77;3.70;;;;;;;;;;4953548;29;20098;-89
2022/01/31 08:53:17;;;;;;;31.65;4.63;;;;;;;;;;4935181;28;20079;-90
2022/01/31 08:55:52;;;;;;;25.08;3.30;;;;;;;;;;4920239;29;20112;-91
2022/01/31 08:58:19;;;;;;;33.78;5.43;;;;;;;;;;4927356;28;20139;-90
2022/01/31 09:00:58;;;;;;;28.77;4.25;;;;;;;;;;4950212;28;20110;-89
2022/01/31 09:06:06;;;;;;;36.60;4.45;;;;;;;;;;4952827;28;20529;-89
2022/01/31 09:08:32;;;;;;;34.92;4.25;;;;;;;;;;4934160;29;20103;-89
2022/01/31 09:10:59;;;;;;;31.73;4.47;;;;;;;;;;4935539;28;20056;-89
2022/01/31 09:13:26;;;;;;;33.30;4.90;;;;;;;;;;4934502;28;20055;-90
2022/01/31 09:15:53;;;;;;;41.53;5.65;;;;;;;;;;4934365;29;20055;-89
2022/01/31 09:18:20;;;;;;;36.67;4.03;;;;;;;;;;4933922;28;20140;-89
2022/01/31 09:20:46;;;;;;;29.67;4.65;;;;;;;;;;4934877;29;20056;-90
2022/01/31 09:23:13;;;;;;;30.88;4.07;;;;;;;;;;4933683;28;20048;-90
2022/01/31 09:25:45;;;;;;;33.50;5.00;;;;;;;;;;4934310;29;20087;-92
2022/01/31 09:28:14;;;;;;;34.72;4.72;;;;;;;;;;4935135;28;20432;-89
2022/01/31 09:30:43;;;;;;;42.38;5.57;;;;;;;;;;4935616;28;20040;-90
2022/01/31 09:33:11;;;;;;;29.27;4.97;;;;;;;;;;4934377;28;20055;-89
2022/01/31 09:35:39;;;;;;;37.40;5.13;;;;;;;;;;4933651;29;20063;-90
2022/01/31 09:38:06;;;;;;;30.75;5.00;;;;;;;;;;4934527;28;20047;-89
2022/01/31 09:40:33;;;;;;;26.58;4.20;;;;;;;;;;4934129;29;20048;-89
2022/01/31 09:43:24;;;;;;;29.35;4.65;;;;;;;;;;4949628;28;20051;-90
2022/01/31 09:46:16;;;;;;;31.70;4.10;;;;;;;;;;4934054;28;20047;-91
2022/01/31 09:48:41;;;;;;;32.67;4.15;;;;;;;;;;4915824;29;20580;-89
2022/01/31 09:51:16;;;;;;;29.80;4.50;;;;;;;;;;4918486;28;20481;-90
2022/01/31 09:53:48;;;;;;;31.45;4.80;;;;;;;;;;4940057;28;20052;-90
2022/01/31 09:56:20;;;;;;;26.35;3.53;;;;;;;;;;4933616;28;20111;-90
2022/01/31 09:58:49;;;;;;;26.33;3.72;;;;;;;;;;4933710;29;20055;-90
2022/01/31 10:01:18;;;;;;;35.30;3.65;;;;;;;;;;4934394;28;20062;-90
2022/01/31 10:03:48;;;;;;;38.97;4.95;;;;;;;;;;4935068;28;20102;-89
2022/01/31 10:06:22;;;;;;;36.05;5.38;;;;;;;;;;4934238;28;20095;-89
2022/01/31 10:08:59;;;;;;;37.13;5.32;;;;;;;;;;4934333;28;20075;-90
2022/01/31 10:11:37;;;;;;;35.38;4.80;;;;;;;;;;4915557;29;20051;-89
2022/01/31 10:16:56;;;;;;;35.20;4.32;;;;;;;;;;4931443;28;20098;-88
2022/01/31 10:19:44;;;;;;;35.42;5.30;;;;;;;;;;4933480;28;20135;-89
2022/01/31 10:22:13;;;;;;;24.17;3.72;;;;;;;;;;4930214;28;20048;-90
2022/01/31 10:24:44;;;;;;;33.05;4.05;;;;;;;;;;4933850;28;20118;-88
2022/01/31 10:27:19;;;;;;;25.33;4.07;;;;;;;;;;4933002;28;20055;-89
2022/01/31 10:29:48;;;;;;;31.15;4.38;;;;;;;;;;4932886;29;20055;-90
2022/01/31 10:32:24;;;;;;;;;;;;;;;;;;4933751;28;20048;-89
2022/01/31 10:34:54;;;;;;;37.65;6.97;;;;;;;;;;4934078;28;19930;-89
2022/01/31 10:37:25;;;;;;;33.85;5.43;;;;;;;;;;4933996;28;20099;-89
2022/01/31 10:52:21;;;;;;;39.53;4.80;;;;;;;;;;4897504;29;20071;-92
2022/01/31 10:57:00;;;;;;;;;;;;;;;;;;4913987;29;20505;-89
2022/01/31 10:59:35;;;;;;;31.92;4.13;;;;;;;;;;4892722;29;20439;-89
2022/01/31 11:02:05;;;;;;;30.10;4.43;;;;;;;;;;4894887;29;20056;-90
2022/01/31 11:04:37;;;;;;;33.40;4.85;;;;;;;;;;4911409;29;20516;-90
2022/01/31 11:07:07;;;;;;;25.65;4.00;;;;;;;;;;4900408;29;20067;-88
2022/01/31 11:09:34;;;;;;;29.40;4.53;;;;;;;;;;4916265;29;20076;-91
2022/01/31 11:12:02;;;;;;;29.05;4.40;;;;;;;;;;4900571;29;20052;-89
2022/01/31 11:14:29;;;;;;;25.75;4.28;;;;;;;;;;4916091;29;20088;-89
2022/01/31 11:16:56;;;;;;;37.00;3.75;;;;;;;;;;4904859;29;20056;-91
2022/01/31 11:19:33;;;;;;;30.25;4.13;;;;;;;;;;4900759;29;20075;-89
2022/01/31 11:22:04;;;;;;;30.30;4.43;;;;;;;;;;4900588;29;20108;-90
2022/01/31 11:24:44;;;;;;;24.40;4.03;;;;;;;;;;4900237;29;20342;-90
2022/01/31 11:27:23;;;;;;;35.20;5.00;;;;;;;;;;4898640;29;20112;-91
2022/01/31 11:29:55;;;;;;;33.33;4.40;;;;;;;;;;4933408;28;20059;-91
2022/01/31 11:32:23;;;;;;;33.63;5.13;;;;;;;;;;4918293;29;20779;-91
2022/01/31 11:34:50;;;;;;;26.00;3.30;;;;;;;;;;4932645;29;20055;-90
2022/01/31 11:37:25;;;;;;;30.42;3.92;;;;;;;;;;4936951;28;20441;-90
2022/01/31 11:39:58;;;;;;;31.42;4.00;;;;;;;;;;4929733;29;20131;-90
2022/01/31 11:42:25;;;;;;;24.85;3.70;;;;;;;;;;4915150;29;20116;-91
2022/01/31 11:45:16;;;;;;;27.10;4.10;;;;;;;;;;4918276;29;20056;-89
2022/01/31 11:47:52;;;;;;;24.25;3.38;;;;;;;;;;4935388;28;20531;-92
2022/01/31 11:50:21;;;;;;;29.83;4.57;;;;;;;;;;4936395;28;20139;-91
2022/01/31 11:52:56;;;;;;;22.45;3.75;;;;;;;;;;4937097;28;20043;-90
2022/01/31 11:55:35;;;;;;;30.25;4.30;;;;;;;;;;4935613;28;20047;-88
2022/01/31 11:58:05;;;;;;;29.88;4.05;;;;;;;;;;4935638;28;20055;-87
2022/01/31 12:00:35;;;;;;;32.83;4.13;;;;;;;;;;4935136;28;20052;-90
2022/01/31 12:03:05;;;;;;;28.55;3.88;;;;;;;;;;4934534;28;20504;-86
2022/01/31 12:05:36;;;;;;;38.17;4.90;;;;;;;;;;4934006;28;20536;-84
2022/01/31 12:08:20;;;;;;;28.38;3.90;;;;;;;;;;4935338;28;20500;-84
2022/01/31 12:10:53;;;;;;;32.65;3.72;;;;;;;;;;4934645;28;20054;-85
2022/01/31 12:13:35;;;;;;;28.98;4.00;;;;;;;;;;4933796;28;20044;-84
2022/01/31 12:16:12;;;;;;;31.05;4.18;;;;;;;;;;4934582;28;20469;-87
2022/01/31 12:18:56;;;;;;;23.17;3.60;;;;;;;;;;4933734;28;20056;-85
2022/01/31 12:24:41;;;;;;;27.83;3.75;;;;;;;;;;4934300;28;20116;-87
2022/01/31 12:27:13;;;;;;;24.95;3.83;;;;;;;;;;4927362;28;20047;-87
2022/01/31 12:29:45;;;;;;;23.02;3.90;;;;;;;;;;4931814;28;20501;-87
2022/01/31 12:32:16;;;;;;;23.10;3.75;;;;;;;;;;4931255;28;20040;-90
2022/01/31 12:34:51;;;;;;;27.92;4.05;;;;;;;;;;4930122;28;20044;-86
2022/01/31 12:37:39;;;;;;;25.55;3.53;;;;;;;;;;4929223;28;20091;-89
2022/01/31 12:40:15;;;;;;;18.53;3.10;;;;;;;;;;4926588;29;20108;-88
2022/01/31 12:45:22;;;;;;;30.33;3.70;;;;;;;;;;4932494;28;20047;-88
2022/01/31 12:48:24;;;;;;;21.67;3.50;;;;;;;;;;4933561;28;20055;-89
2022/01/31 12:50:50;;;;;;;23.85;3.97;;;;;;;;;;4934798;28;20056;-90
2022/01/31 12:53:23;;;;;;;27.40;4.10;;;;;;;;;;4932622;28;20040;-90
2022/01/31 12:56:25;;;;;;;22.27;3.95;;;;;;;;;;4934852;28;20662;-91
2022/01/31 12:59:24;;;;;;;26.05;3.90;;;;;;;;;;4926115;28;20047;-89
2022/01/31 13:01:51;;;;;;;25.38;3.00;;;;;;;;;;4889178;29;20063;-88
2022/01/31 13:04:23;;;;;;;22.55;3.50;;;;;;;;;;4890233;29;20281;-88
2022/01/31 13:06:59;;;;;;;19.75;3.25;;;;;;;;;;4867419;29;20096;-87
2022/01/31 13:09:47;;;;;;;29.27;4.15;;;;;;;;;;4902139;29;22304;-90
2022/01/31 13:12:17;;;;;;;22.33;3.20;;;;;;;;;;4891144;29;20045;-90
2022/01/31 13:14:49;;;;;;;21.67;2.97;;;;;;;;;;4890500;29;20063;-90
2022/01/31 13:17:21;;;;;;;23.60;3.72;;;;;;;;;;4879769;29;20113;-88
2022/01/31 13:19:54;;;;;;;21.23;3.47;;;;;;;;;;4890162;29;20056;-89
2022/01/31 13:25:10;;;;;;;22.52;3.28;;;;;;;;;;4890654;29;20059;-88
2022/01/31 13:27:58;;;;;;;21.27;3.55;;;;;;;;;;4883043;29;20057;-88
2022/01/31 13:30:30;;;;;;;27.95;4.53;;;;;;;;;;4880696;29;20056;-88
2022/01/31 13:33:00;;;;;;;18.98;3.30;;;;;;;;;;4887599;29;20072;-87
2022/01/31 13:35:29;;;;;;;28.90;3.85;;;;;;;;;;4887266;29;20582;-84
2022/01/31 13:37:59;;;;;;;33.17;3.50;;;;;;;;;;4914869;28;20449;-87
2022/01/31 13:40:39;;;;;;;20.33;4.05;;;;;;;;;;4927746;28;20107;-87
2022/01/31 13:43:09;;;;;;;23.30;3.67;;;;;;;;;;4928483;28;20414;-86
2022/01/31 13:46:00;;;;;;;19.27;3.70;;;;;;;;;;4931063;29;20055;-87
2022/01/31 13:48:46;;;;;;;28.95;4.00;;;;;;;;;;4931669;28;20564;-87
2022/01/31 13:51:25;;;;;;;30.55;3.50;;;;;;;;;;4924896;28;20493;-88
2022/01/31 13:53:52;;;;;;;22.52;2.83;;;;;;;;;;4914623;29;20060;-87
2022/01/31 13:56:19;;;;;;;21.58;3.83;;;;;;;;;;4921585;28;20454;-86
2022/01/31 13:58:57;;;;;;;21.35;3.38;;;;;;;;;;4926004;28;20048;-85
2022/01/31 14:01:24;;;;;;;24.83;3.80;;;;;;;;;;4924543;28;20155;-86
2022/01/31 14:03:52;;;;;;;23.77;3.90;;;;;;;;;;4929593;29;20135;-87
2022/01/31 14:06:20;;;;;;;27.40;4.22;;;;;;;;;;4922858;29;20072;-85
2022/01/31 14:08:57;;;;;;;20.98;3.40;;;;;;;;;;4926420;28;20048;-83
2022/01/31 14:11:26;;;;;;;32.47;4.05;;;;;;;;;;4920459;28;20500;-84
2022/01/31 14:13:59;;;;;;;27.45;3.78;;;;;;;;;;4921527;28;20102;-86
2022/01/31 14:16:35;;;;;;;21.33;4.00;;;;;;;;;;4927432;28;20067;-87
2022/01/31 14:19:06;;;;;;;25.48;4.18;;;;;;;;;;4924114;28;20055;-84
2022/01/31 14:21:35;;;;;;;30.35;4.93;;;;;;;;;;4926647;28;20043;-87
2022/01/31 14:24:04;;;;;;;19.67;4.60;;;;;;;;;;4931201;29;20135;-86
2022/01/31 14:26:55;;;;;;;34.42;5.03;;;;;;;;;;4932187;28;20118;-87
2022/01/31 14:29:24;;;;;;;24.73;3.60;;;;;;;;;;4931794;28;20079;-86
2022/01/31 14:31:51;;;;;;;21.08;3.60;;;;;;;;;;4932038;28;20054;-87
2022/01/31 14:34:36;;;;;;;32.38;4.70;;;;;;;;;;4931631;28;20055;-86
2022/01/31 14:37:04;;;;;;;29.85;4.82;;;;;;;;;;4932309;28;20091;-86
2022/01/31 14:39:42;;;;;;;19.90;4.22;;;;;;;;;;4931898;29;20056;-88
2022/01/31 14:47:51;;;;;;;26.35;4.38;;;;;;;;;;4931370;28;20055;-87
2022/01/31 14:50:24;;;;;;;31.85;4.20;;;;;;;;;;4932676;28;20067;-87
2022/01/31 14:52:50;;;;;;;32.33;3.65;;;;;;;;;;4936233;28;20103;-86
2022/01/31 14:55:21;;;;;;;26.08;4.07;;;;;;;;;;4935349;28;20043;-85
2022/01/31 14:57:49;;;;;;;41.40;5.03;;;;;;;;;;4934722;28;20047;-86
2022/01/31 15:00:19;;;;;;;37.17;5.15;;;;;;;;;;4934964;28;20055;-85
2022/01/31 15:02:48;;;;;;;27.02;4.28;;;;;;;;;;4929864;28;20090;-86
2022/01/31 15:05:19;;;;;;;35.45;4.45;;;;;;;;;;4930157;28;20535;-87
2022/01/31 15:07:47;;;;;;;23.77;3.80;;;;;;;;;;4935702;28;20051;-87
2022/01/31 15:10:20;;;;;;;32.13;4.68;;;;;;;;;;4927373;28;20168;-87
2022/01/31 15:12:47;;;;;;;24.73;4.35;;;;;;;;;;4935192;29;20126;-89
2022/01/31 15:15:15;;;;;;;29.55;4.85;;;;;;;;;;4935259;28;20201;-86
2022/01/31 15:17:46;;;;;;;36.60;5.18;;;;;;;;;;4935566;28;20063;-86
2022/01/31 15:20:13;;;;;;;31.40;5.15;;;;;;;;;;4934582;28;20098;-86
2022/01/31 15:22:40;;;;;;;35.50;5.60;;;;;;;;;;4935338;28;20402;-85
2022/01/31 15:25:07;;;;;;;37.75;5.60;;;;;;;;;;4935020;28;20047;-87
2022/01/31 15:27:34;;;;;;;26.38;4.45;;;;;;;;;;4934720;28;20458;-86
2022/01/31 15:30:04;;;;;;;28.05;4.50;;;;;;;;;;4935060;28;20107;-86
2022/01/31 15:32:30;;;;;;;31.08;4.65;;;;;;;;;;4934139;28;20043;-86
2022/01/31 15:34:57;;;;;;;30.92;4.28;;;;;;;;;;4934877;28;20047;-86
2022/01/31 15:37:24;;;;;;;34.58;4.53;;;;;;;;;;4934538;28;20109;-86
2022/01/31 15:40:16;;;;;;;25.60;3.55;;;;;;;;;;4934357;28;20039;-84
2022/01/31 15:42:43;;;;;;;31.70;3.88;;;;;;;;;;4934125;28;20130;-85
2022/01/31 15:45:10;;;;;;;23.20;4.00;;;;;;;;;;4931516;28;20048;-84
2022/01/31 15:47:36;;;;;;;23.23;4.00;;;;;;;;;;4934408;29;20111;-85
2022/01/31 15:50:04;;;;;;;20.55;3.95;;;;;;;;;;4934351;28;20044;-85
2022/01/31 15:52:36;;;;;;;17.92;2.55;;;;;;;;;;4932831;28;20130;-85
2022/01/31 15:55:03;;;;;;;21.27;3.30;;;;;;;;;;4933600;29;20134;-86
2022/01/31 15:57:36;;;;;;;19.77;3.72;;;;;;;;;;4934859;28;20047;-86
2022/01/31 16:00:11;;;;;;;20.48;3.78;;;;;;;;;;4934416;28;20107;-85
2022/01/31 16:02:43;;;;;;;17.83;2.55;;;;;;;;;;4928667;28;20052;-85
2022/01/31 16:05:11;;;;;;;23.98;4.60;;;;;;;;;;4934106;28;20050;-86
2022/01/31 16:07:39;;;;;;;26.40;3.40;;;;;;;;;;4934762;28;20055;-86
2022/01/31 16:10:07;;;;;;;18.83;2.85;;;;;;;;;;4941700;28;20287;-85
2022/01/31 16:12:34;;;;;;;17.67;3.23;;;;;;;;;;4935336;28;20052;-85
2022/01/31 16:15:01;;;;;;;19.90;3.20;;;;;;;;;;4934661;28;20082;-86
2022/01/31 16:17:28;;;;;;;16.35;2.42;;;;;;;;;;4933927;28;20047;-85
2022/01/31 16:19:55;;;;;;;20.33;3.35;;;;;;;;;;4933794;28;20052;-85
2022/01/31 16:22:22;;;;;;;23.02;3.25;;;;;;;;;;4947852;28;20047;-85
2022/01/31 16:24:48;;;;;;;21.02;3.58;;;;;;;;;;4932876;29;20508;-86
2022/01/31 16:27:22;;;;;;;15.45;3.50;;;;;;;;;;4934116;28;20044;-87
2022/01/31 16:29:51;;;;;;;16.92;2.58;;;;;;;;;;4932936;29;20056;-85
2022/01/31 16:32:19;;;;;;;15.73;2.80;;;;;;;;;;4929202;28;20107;-85
2022/01/31 16:34:46;;;;;;;19.98;3.13;;;;;;;;;;4933907;28;20051;-85
2022/01/31 16:37:12;;;;;;;19.67;2.90;;;;;;;;;;4933276;28;20115;-85
2022/01/31 16:39:39;;;;;;;27.17;3.67;;;;;;;;;;4932250;29;20055;-85
2022/01/31 16:42:06;;;;;;;15.10;2.60;;;;;;;;;;4932912;28;20106;-87
2022/01/31 16:44:33;;;;;;;18.15;3.67;;;;;;;;;;4934038;28;20043;-86
2022/01/31 16:47:01;;;;;;;24.13;3.63;;;;;;;;;;4933420;28;20052;-84
2022/01/31 16:49:28;;;;;;;29.25;3.28;;;;;;;;;;4928481;29;20913;-86
2022/01/31 16:51:55;;;;;;;25.67;3.30;;;;;;;;;;4933451;28;20453;-85
2022/01/31 16:54:22;;;;;;;19.55;2.85;;;;;;;;;;4931710;29;20110;-86
2022/01/31 16:56:48;;;;;;;17.08;3.50;;;;;;;;;;4933815;28;20106;-86
2022/01/31 16:59:16;;;;;;;21.90;2.83;;;;;;;;;;4933453;28;20103;-85
2022/01/31 17:01:43;;;;;;;19.80;3.72;;;;;;;;;;4928328;29;20630;-87
2022/01/31 17:04:10;;;;;;;24.33;3.50;;;;;;;;;;4929480;28;20044;-85
2022/01/31 17:06:37;;;;;;;24.08;3.55;;;;;;;;;;4933352;28;20468;-84
2022/01/31 17:09:03;;;;;;;24.38;3.88;;;;;;;;;;4929711;29;20119;-85
2022/01/31 17:11:30;;;;;;;30.25;3.85;;;;;;;;;;4917662;29;20058;-85
2022/01/31 17:13:57;;;;;;;23.60;4.03;;;;;;;;;;4933013;28;20078;-87
2022/01/31 17:16:25;;;;;;;18.85;3.00;;;;;;;;;;4928499;29;20111;-85
2022/01/31 17:18:52;;;;;;;24.52;4.15;;;;;;;;;;4922267;28;20078;-85
2022/01/31 17:21:19;;;;;;;21.35;2.80;;;;;;;;;;4931022;29;20043;-87
2022/01/31 17:23:46;;;;;;;27.42;3.40;;;;;;;;;;4933344;28;20167;-86
2022/01/31 17:26:12;;;;;;;20.73;4.80;;;;;;;;;;4931636;28;20091;-85
2022/01/31 17:28:39;;;;;;;19.05;3.22;;;;;;;;;;4928370;28;20051;-84
2022/01/31 17:31:06;;;;;;;21.70;3.13;;;;;;;;;;4946563;28;20051;-87
2022/01/31 17:33:33;;;;;;;24.40;4.68;;;;;;;;;;4919044;29;20473;-86
2022/01/31 17:36:00;;;;;;;22.02;3.67;;;;;;;;;;4933309;28;20052;-85
2022/01/31 17:38:27;;;;;;;18.83;3.45;;;;;;;;;;4933299;28;20055;-88
2022/01/31 17:40:54;;;;;;;24.50;3.58;;;;;;;;;;4933140;28;20047;-87
2022/01/31 17:43:22;;;;;;;21.35;3.70;;;;;;;;;;4932372;28;20512;-85
2022/01/31 17:45:49;;;;;;;23.80;3.90;;;;;;;;;;4930050;28;20048;-86
2022/01/31 17:48:21;;;;;;;26.98;4.30;;;;;;;;;;4923809;28;20310;-88
2022/01/31 17:50:48;;;;;;;18.67;3.00;;;;;;;;;;4919949;29;20051;-84
2022/01/31 17:53:15;;;;;;;21.08;3.90;;;;;;;;;;4931939;28;20111;-85
2022/01/31 17:55:41;;;;;;;26.85;4.10;;;;;;;;;;4940591;28;20067;-85
2022/01/31 17:58:08;;;;;;;21.13;3.67;;;;;;;;;;4931454;28;20055;-87
2022/01/31 18:00:34;;;;;;;33.63;7.20;;;;;;;;;;4932487;29;20092;-86
2022/01/31 18:03:01;;;;;;;25.50;4.85;;;;;;;;;;4930216;28;20048;-86
2022/01/31 18:05:28;;;;;;;34.17;4.07;;;;;;;;;;4931859;28;20058;-83
2022/01/31 18:07:56;;;;;;;35.47;9.05;;;;;;;;;;4929170;28;20055;-84
2022/01/31 18:10:23;;;;;;;31.50;5.70;;;;;;;;;;4935435;28;20044;-86
2022/01/31 18:12:51;;;;;;;24.88;4.43;;;;;;;;;;4923377;28;20099;-84
2022/01/31 18:15:18;;;;;;;29.63;5.65;;;;;;;;;;4931094;28;20070;-84
2022/01/31 18:17:45;;;;;;;29.83;5.05;;;;;;;;;;4932231;28;20048;-83
2022/01/31 18:20:14;;;;;;;27.10;5.15;;;;;;;;;;4929811;28;20464;-83
2022/01/31 18:22:41;;;;;;;29.10;4.25;;;;;;;;;;4931953;28;20420;-83
2022/01/31 18:25:09;;;;;;;41.75;15.13;;;;;;;;;;4931440;28;20043;-82
2022/01/31 18:27:37;;;;;;;34.38;5.47;;;;;;;;;;4929980;28;20111;-83
2022/01/31 18:30:05;;;;;;;32.28;5.10;;;;;;;;;;4929531;29;20111;-83
2022/01/31 18:32:43;;;;;;;27.25;4.47;;;;;;;;;;4930526;28;20456;-84
2022/01/31 18:35:10;;;;;;;25.95;4.47;;;;;;;;;;4926200;28;20420;-83
2022/01/31 18:37:38;;;;;;;24.73;3.58;;;;;;;;;;4925525;28;20083;-81
2022/01/31 18:40:06;;;;;;;36.15;4.65;;;;;;;;;;4920514;28;20149;-82
2022/01/31 18:42:33;;;;;;;29.52;4.90;;;;;;;;;;4926345;28;20111;-84
2022/01/31 18:45:00;;;;;;;31.40;4.35;;;;;;;;;;4904718;28;20465;-83
2022/01/31 18:47:27;;;;;;;38.15;4.72;;;;;;;;;;4924830;28;20351;-82
2022/01/31 18:49:55;;;;;;;31.88;4.30;;;;;;;;;;4925890;28;20059;-82
2022/01/31 18:52:23;;;;;;;30.37;4.67;;;;;;;;;;4928004;28;20090;-82
2022/01/31 18:54:50;;;;;;;26.15;5.30;;;;;;;;;;4926430;28;20327;-84
2022/01/31 18:57:17;;;;;;;32.70;5.05;;;;;;;;;;4925933;28;20056;-83
2022/01/31 18:59:44;;;;;;;31.00;5.50;;;;;;;;;;4924985;28;20071;-84
2022/01/31 19:02:11;;;;;;;28.58;4.93;;;;;;;;;;4927173;28;20130;-83
2022/01/31 19:04:40;;;;;;;29.67;4.85;;;;;;;;;;4929122;28;20419;-83
2022/01/31 19:07:07;;;;;;;28.15;4.38;;;;;;;;;;4927736;28;20094;-84
2022/01/31 19:09:38;;;;;;;36.50;6.50;;;;;;;;;;4931305;28;20095;-83
2022/01/31 19:12:11;;;;;;;35.45;5.97;;;;;;;;;;4928591;28;20047;-84
2022/01/31 19:17:09;;;;;;;25.95;4.70;;;;;;;;;;4929909;28;20103;-85
2022/01/31 19:19:36;;;;;;;24.55;4.75;;;;;;;;;;4931632;28;20055;-87
2022/01/31 19:22:05;;;;;;;27.48;4.45;;;;;;;;;;4930848;28;20048;-85
2022/01/31 19:24:35;;;;;;;27.92;4.00;;;;;;;;;;4928991;28;20059;-85
2022/01/31 19:27:03;;;;;;;30.35;5.47;;;;;;;;;;4919972;29;20059;-85
2022/01/31 19:29:30;;;;;;;27.42;6.38;;;;;;;;;;4933820;29;20051;-84
2022/01/31 19:31:57;;;;;;;24.15;5.50;;;;;;;;;;4928434;28;20494;-85
2022/01/31 19:34:23;;;;;;;24.10;4.82;;;;;;;;;;4927948;28;20126;-84
2022/01/31 19:36:50;;;;;;;22.08;4.15;;;;;;;;;;4932437;28;20073;-85
2022/01/31 19:44:34;;;;;;;23.08;3.88;;;;;;;;;;4932737;28;20504;-85
2022/01/31 19:47:01;;;;;;;21.95;3.88;;;;;;;;;;4930858;29;20111;-85
2022/01/31 19:49:28;;;;;;;29.25;5.00;;;;;;;;;;4931705;28;20048;-85
2022/01/31 19:51:55;;;;;;;24.63;5.40;;;;;;;;;;4929621;28;20051;-83
2022/01/31 19:54:24;;;;;;;19.95;4.28;;;;;;;;;;4922597;28;20068;-85
2022/01/31 19:56:51;;;;;;;24.20;5.25;;;;;;;;;;4932832;28;20044;-84
2022/01/31 19:59:18;;;;;;;20.65;4.68;;;;;;;;;;4929022;28;20055;-84
2022/01/31 20:01:45;;;;;;;22.65;3.83;;;;;;;;;;4927897;28;20472;-85
2022/01/31 20:04:12;;;;;;;23.83;3.65;;;;;;;;;;4932956;28;20122;-87
2022/01/31 20:06:38;;;;;;;19.15;4.07;;;;;;;;;;4933628;28;20063;-86
2022/01/31 20:09:13;;;;;;;23.73;4.80;;;;;;;;;;4931891;28;20063;-85
2022/01/31 20:11:40;;;;;;;22.60;5.13;;;;;;;;;;4931084;29;20055;-86
2022/01/31 20:14:07;;;;;;;21.27;4.13;;;;;;;;;;4926110;28;20048;-86
2022/01/31 20:16:34;;;;;;;21.42;4.18;;;;;;;;;;4933262;28;20048;-87
2022/01/31 20:19:02;;;;;;;27.50;4.72;;;;;;;;;;4933553;28;20047;-86
2022/01/31 20:21:30;;;;;;;33.30;4.35;;;;;;;;;;4933671;28;20123;-87
2022/01/31 20:24:17;;;;;;;27.50;4.07;;;;;;;;;;4932681;28;20078;-86
2022/01/31 20:26:44;;;;;;;28.20;6.97;;;;;;;;;;4933507;28;20118;-87
2022/01/31 20:29:11;;;;;;;24.20;3.90;;;;;;;;;;4931265;28;20599;-85
2022/01/31 20:31:37;;;;;;;23.20;3.97;;;;;;;;;;4931002;29;20111;-86
2022/01/31 20:34:05;;;;;;;22.35;3.70;;;;;;;;;;4928372;28;20435;-85
2022/01/31 20:36:34;;;;;;;27.85;4.22;;;;;;;;;;4932321;28;20060;-85
2022/01/31 20:41:38;;;;;;;28.85;4.28;;;;;;;;;;4936167;28;20052;-89
2022/01/31 20:44:11;;;;;;;27.90;3.92;;;;;;;;;;4927915;28;20079;-85
2022/01/31 20:46:39;;;;;;;22.52;4.35;;;;;;;;;;4932573;29;20048;-85
2022/01/31 20:49:07;;;;;;;23.25;4.00;;;;;;;;;;4926443;29;20142;-86
2022/01/31 20:51:33;;;;;;;22.83;4.15;;;;;;;;;;4921581;29;20115;-85
2022/01/31 20:54:02;;;;;;;25.75;4.53;;;;;;;;;;4928769;29;20059;-85
2022/01/31 20:56:32;;;;;;;38.75;6.90;;;;;;;;;;4932516;28;20501;-87
2022/01/31 20:58:59;;;;;;;26.23;4.88;;;;;;;;;;4927956;29;20056;-85
2022/01/31 21:01:26;;;;;;;28.92;4.03;;;;;;;;;;4930370;28;20052;-84
2022/01/31 21:03:55;;;;;;;32.92;4.40;;;;;;;;;;4930938;28;20055;-85
2022/01/31 21:06:21;;;;;;;24.50;3.53;;;;;;;;;;4929405;29;20520;-85
2022/01/31 21:08:53;;;;;;;34.92;4.80;;;;;;;;;;4932582;29;20058;-88
2022/01/31 21:11:25;;;;;;;22.80;4.72;;;;;;;;;;4930712;28;20048;-86
2022/01/31 21:13:54;;;;;;;29.98;6.88;;;;;;;;;;4931057;29;20126;-87
2022/01/31 21:16:24;;;;;;;32.03;6.28;;;;;;;;;;4931090;28;20579;-85
2022/01/31 21:18:52;;;;;;;27.65;4.72;;;;;;;;;;4931490;29;20055;-87
2022/01/31 21:21:20;;;;;;;31.17;3.88;;;;;;;;;;4931347;28;21016;-85
2022/01/31 21:23:46;;;;;;;32.05;3.70;;;;;;;;;;4932748;28;20140;-85
2022/01/31 21:26:13;;;;;;;27.15;4.13;;;;;;;;;;4923517;28;20052;-86
2022/01/31 21:28:40;;;;;;;33.75;4.70;;;;;;;;;;4927334;29;20684;-92
2022/01/31 21:31:07;;;;;;;24.52;4.47;;;;;;;;;;4931045;28;20047;-89
2022/01/31 21:33:38;;;;;;;23.85;4.25;;;;;;;;;;4931642;29;20095;-87
2022/01/31 21:36:11;;;;;;;36.55;4.38;;;;;;;;;;4926372;28;20535;-89
2022/01/31 21:38:40;;;;;;;23.85;4.88;;;;;;;;;;4930992;28;20048;-89
2022/01/31 21:41:07;;;;;;;30.75;6.70;;;;;;;;;;4925549;28;20048;-89
2022/01/31 21:43:34;;;;;;;24.00;4.25;;;;;;;;;;4938991;29;20060;-88
2022/01/31 21:46:01;;;;;;;34.08;4.93;;;;;;;;;;4928281;29;20048;-89
2022/01/31 21:48:28;;;;;;;25.45;4.78;;;;;;;;;;4939962;28;20090;-90
2022/01/31 21:50:56;;;;;;;27.55;4.28;;;;;;;;;;4924907;28;20119;-90
2022/01/31 21:53:24;;;;;;;40.75;5.60;;;;;;;;;;4922676;29;24404;-87
2022/01/31 21:55:50;;;;;;;38.38;5.30;;;;;;;;;;4930455;28;20059;-88
2022/01/31 21:58:17;;;;;;;43.45;5.35;;;;;;;;;;4931069;28;20160;-90
2022/01/31 22:00:46;;;;;;;28.73;5.47;;;;;;;;;;4920184;29;20115;-90
2022/01/31 22:03:14;;;;;;;24.27;4.20;;;;;;;;;;4930850;29;20111;-88
2022/01/31 22:05:41;;;;;;;35.30;4.18;;;;;;;;;;4926447;29;20055;-91
2022/01/31 22:08:08;;;;;;;33.42;4.68;;;;;;;;;;4934638;28;20118;-90
2022/01/31 22:10:57;;;;;;;26.63;3.90;;;;;;;;;;4926221;29;20572;-91
2022/01/31 22:13:26;;;;;;;33.75;5.05;;;;;;;;;;4916115;29;20055;-91
2022/01/31 22:15:52;;;;;;;37.25;4.53;;;;;;;;;;4922443;28;20604;-90
2022/01/31 22:18:20;;;;;;;28.83;4.53;;;;;;;;;;4934085;28;20047;-90
2022/01/31 22:20:46;;;;;;;28.33;4.63;;;;;;;;;;4931409;29;20670;-90
2022/01/31 22:23:14;;;;;;;30.98;4.25;;;;;;;;;;4931287;28;20039;-90
2022/01/31 22:25:41;;;;;;;23.73;3.67;;;;;;;;;;4934190;28;20047;-91
2022/01/31 22:28:08;;;;;;;24.83;3.60;;;;;;;;;;4924600;28;20115;-91
2022/01/31 22:30:35;;;;;;;27.95;3.88;;;;;;;;;;4915223;29;20060;-91
2022/01/31 22:33:04;;;;;;;30.55;4.20;;;;;;;;;;4930707;29;20477;-90
2022/01/31 22:35:31;;;;;;;29.38;3.83;;;;;;;;;;4928396;28;20056;-91